Data Viewer
| City | State | Eastern Time | Source | Temp | DewPt | RH | BP | 5 Min Precip | Wind Speed | Wind Dir | 5 Min Wind Max | 5 Min Wind Max Dir |
|---|---|---|---|---|---|---|---|---|---|---|---|---|
| Sandtown | DE | 2026-05-04 05:25 | DEOS | 50 | 45 | 85 | 29.95 | 0.00 | 1 | SSW | 4 | |
| Sandtown | DE | 2026-05-04 21:15 | DEOS | 65 | 44 | 46 | 29.80 | 0.00 | 2 | SW | 5 | |
| Sandtown | DE | 2026-05-04 21:45 | DEOS | 64 | 45 | 50 | 29.80 | 0.00 | 3 | SSW | 7 | |
| Sandtown | DE | 2026-05-04 21:40 | DEOS | 64 | 45 | 49 | 29.80 | 0.00 | 2 | SSW | 8 | |
| Sandtown | DE | 2026-05-04 21:35 | DEOS | 64 | 45 | 49 | 29.80 | 0.00 | 2 | SSW | 5 | |
| Sandtown | DE | 2026-05-04 21:30 | DEOS | 65 | 45 | 48 | 29.80 | 0.00 | 1 | SSW | 4 | |
| Sandtown | DE | 2026-05-04 21:25 | DEOS | 65 | 44 | 48 | 29.80 | 0.00 | 2 | SSW | 6 | |
| Sandtown | DE | 2026-05-04 21:20 | DEOS | 65 | 44 | 47 | 29.80 | 0.00 | 2 | SSW | 7 | |
| Sandtown | DE | 2026-05-04 21:10 | DEOS | 65 | 43 | 45 | 29.80 | 0.00 | 3 | SSW | 8 | |
| Sandtown | DE | 2026-05-04 21:55 | DEOS | 64 | 46 | 51 | 29.80 | 0.00 | 2 | SSW | 6 | |
| Sandtown | DE | 2026-05-04 21:05 | DEOS | 65 | 43 | 44 | 29.80 | 0.00 | 2 | SSW | 6 | |
| Sandtown | DE | 2026-05-04 21:00 | DEOS | 65 | 43 | 44 | 29.80 | 0.00 | 1 | SSW | 3 | |
| Sandtown | DE | 2026-05-04 20:55 | DEOS | 65 | 42 | 43 | 29.80 | 0.00 | 2 | SSW | 4 | |
| Sandtown | DE | 2026-05-04 20:50 | DEOS | 66 | 42 | 43 | 29.80 | 0.00 | 2 | SSW | 5 | |
| Sandtown | DE | 2026-05-04 20:45 | DEOS | 66 | 42 | 42 | 29.80 | 0.00 | 1 | SSW | 4 | |
| Sandtown | DE | 2026-05-04 20:40 | DEOS | 66 | 42 | 41 | 29.80 | 0.00 | 2 | SSW | 6 | |
| Sandtown | DE | 2026-05-04 21:50 | DEOS | 64 | 46 | 50 | 29.80 | 0.00 | 2 | SSW | 5 | |
| Sandtown | DE | 2026-05-04 22:00 | DEOS | 64 | 46 | 52 | 29.80 | 0.00 | 3 | SSW | 6 | |
| Sandtown | DE | 2026-05-04 20:30 | DEOS | 67 | 42 | 40 | 29.80 | 0.00 | 2 | SSW | 5 | |
| Sandtown | DE | 2026-05-04 22:45 | DEOS | 63 | 48 | 59 | 29.81 | 0.00 | 3 | SSW | 7 | |
| Sandtown | DE | 2026-05-04 23:15 | DEOS | 62 | 49 | 63 | 29.81 | 0.00 | 2 | SSW | 6 | |
| Sandtown | DE | 2026-05-04 23:10 | DEOS | 62 | 49 | 62 | 29.81 | 0.00 | 2 | S | 5 | |
| Sandtown | DE | 2026-05-04 23:05 | DEOS | 62 | 49 | 62 | 29.81 | 0.00 | 3 | SSW | 6 | |
| Sandtown | DE | 2026-05-04 23:00 | DEOS | 62 | 49 | 62 | 29.81 | 0.00 | 2 | SSW | 7 | |
| Sandtown | DE | 2026-05-04 22:55 | DEOS | 63 | 49 | 60 | 29.81 | 0.00 | 2 | SSW | 6 | |
| Sandtown | DE | 2026-05-04 22:50 | DEOS | 63 | 48 | 60 | 29.81 | 0.00 | 3 | SSW | 7 | |
| Sandtown | DE | 2026-05-04 22:40 | DEOS | 63 | 48 | 58 | 29.81 | 0.00 | 2 | SSW | 6 | |
| Sandtown | DE | 2026-05-04 22:05 | DEOS | 64 | 46 | 52 | 29.81 | 0.00 | 3 | SSW | 8 | |
| Sandtown | DE | 2026-05-04 22:35 | DEOS | 63 | 48 | 57 | 29.81 | 0.00 | 2 | SSW | 7 | |
| Sandtown | DE | 2026-05-04 22:30 | DEOS | 63 | 47 | 57 | 29.81 | 0.00 | 3 | SSW | 6 | |
| Sandtown | DE | 2026-05-04 22:25 | DEOS | 63 | 47 | 56 | 29.81 | 0.00 | 3 | S | 9 | |
| Sandtown | DE | 2026-05-04 22:20 | DEOS | 63 | 47 | 56 | 29.81 | 0.00 | 2 | SSW | 7 | |
| Sandtown | DE | 2026-05-04 22:15 | DEOS | 63 | 47 | 55 | 29.81 | 0.00 | 3 | SSW | 6 | |
| Sandtown | DE | 2026-05-04 22:10 | DEOS | 64 | 46 | 54 | 29.81 | 0.00 | 2 | S | 5 | |
| Sandtown | DE | 2026-05-04 20:35 | DEOS | 67 | 42 | 40 | 29.80 | 0.00 | 2 | SSW | 5 | |
| Sandtown | DE | 2026-05-04 20:25 | DEOS | 67 | 42 | 39 | 29.80 | 0.00 | 2 | S | 4 | |
| Sandtown | DE | 2026-05-04 23:25 | DEOS | 61 | 49 | 65 | 29.81 | 0.00 | 1 | SSW | 4 | |
| Sandtown | DE | 2026-05-04 18:15 | DEOS | 73 | 40 | 30 | 29.78 | 0.00 | 5 | SSW | 9 | |
| Sandtown | DE | 2026-05-04 18:45 | DEOS | 73 | 40 | 31 | 29.78 | 0.00 | 4 | SSW | 11 | |
| Sandtown | DE | 2026-05-04 18:40 | DEOS | 73 | 39 | 30 | 29.78 | 0.00 | 6 | SSW | 15 | |
| Sandtown | DE | 2026-05-04 18:35 | DEOS | 73 | 40 | 30 | 29.78 | 0.00 | 5 | SSW | 10 | |
| Sandtown | DE | 2026-05-04 18:30 | DEOS | 73 | 40 | 30 | 29.78 | 0.00 | 5 | SSW | 11 | |
| Sandtown | DE | 2026-05-04 18:25 | DEOS | 73 | 40 | 30 | 29.78 | 0.00 | 6 | SSW | 9 | |
| Sandtown | DE | 2026-05-04 18:20 | DEOS | 73 | 40 | 30 | 29.78 | 0.00 | 5 | SSW | 11 | |
| Sandtown | DE | 2026-05-04 18:10 | DEOS | 74 | 40 | 29 | 29.78 | 0.00 | 6 | SSW | 12 | |
| Sandtown | DE | 2026-05-04 18:55 | DEOS | 72 | 38 | 29 | 29.78 | 0.00 | 6 | SSW | 11 | |
| Sandtown | DE | 2026-05-04 18:05 | DEOS | 74 | 39 | 29 | 29.78 | 0.00 | 7 | SSW | 17 | |
| Sandtown | DE | 2026-05-04 18:00 | DEOS | 74 | 39 | 28 | 29.79 | 0.00 | 5 | SSW | 11 | |
| Sandtown | DE | 2026-05-04 17:55 | DEOS | 74 | 39 | 29 | 29.79 | 0.00 | 7 | SSW | 12 | |
| Sandtown | DE | 2026-05-04 17:50 | DEOS | 74 | 40 | 29 | 29.79 | 0.00 | 6 | SSW | 14 | |
| Sandtown | DE | 2026-05-04 17:45 | DEOS | 74 | 39 | 28 | 29.79 | 0.00 | 6 | SSW | 11 | |
| Sandtown | DE | 2026-05-04 17:40 | DEOS | 74 | 39 | 28 | 29.79 | 0.00 | 6 | SSW | 10 | |
| Sandtown | DE | 2026-05-04 18:50 | DEOS | 73 | 39 | 30 | 29.78 | 0.00 | 5 | SW | 11 | |
| Sandtown | DE | 2026-05-04 19:00 | DEOS | 72 | 38 | 28 | 29.78 | 0.00 | 6 | SSW | 12 | |
| Sandtown | DE | 2026-05-04 20:20 | DEOS | 67 | 41 | 38 | 29.80 | 0.00 | 2 | S | 6 | |
| Sandtown | DE | 2026-05-04 19:45 | DEOS | 69 | 40 | 34 | 29.78 | 0.00 | 3 | SSW | 7 | |
| Sandtown | DE | 2026-05-04 20:15 | DEOS | 67 | 41 | 38 | 29.80 | 0.00 | 1 | SSW | 4 | |
| Sandtown | DE | 2026-05-04 20:10 | DEOS | 68 | 41 | 37 | 29.80 | 0.00 | 2 | SSW | 5 | |
| Sandtown | DE | 2026-05-04 20:05 | DEOS | 68 | 41 | 37 | 29.80 | 0.00 | 3 | SSW | 5 | |
| Sandtown | DE | 2026-05-04 20:00 | DEOS | 68 | 40 | 36 | 29.78 | 0.00 | 2 | S | 5 | |
| Sandtown | DE | 2026-05-04 19:55 | DEOS | 69 | 40 | 35 | 29.78 | 0.00 | 2 | SSW | 4 | |
| Sandtown | DE | 2026-05-04 19:50 | DEOS | 69 | 40 | 34 | 29.78 | 0.00 | 3 | SSW | 6 | |
| Sandtown | DE | 2026-05-04 19:40 | DEOS | 70 | 39 | 32 | 29.78 | 0.00 | 2 | SSW | 6 | |
| Sandtown | DE | 2026-05-04 19:05 | DEOS | 72 | 38 | 29 | 29.78 | 0.00 | 4 | SSW | 10 | |
| Sandtown | DE | 2026-05-04 19:35 | DEOS | 70 | 39 | 32 | 29.78 | 0.00 | 3 | SSW | 8 | |
| Sandtown | DE | 2026-05-04 19:30 | DEOS | 70 | 38 | 31 | 29.78 | 0.00 | 4 | SSW | 9 | |
| Sandtown | DE | 2026-05-04 19:25 | DEOS | 71 | 38 | 30 | 29.78 | 0.00 | 3 | SSW | 8 | |
| Sandtown | DE | 2026-05-04 19:20 | DEOS | 71 | 38 | 29 | 29.78 | 0.00 | 4 | SSW | 9 | |
| Sandtown | DE | 2026-05-04 19:15 | DEOS | 71 | 38 | 29 | 29.78 | 0.00 | 4 | SSW | 8 | |
| Sandtown | DE | 2026-05-04 19:10 | DEOS | 72 | 37 | 29 | 29.78 | 0.00 | 5 | SSW | 11 | |
| Sandtown | DE | 2026-05-04 23:20 | DEOS | 61 | 49 | 64 | 29.81 | 0.00 | 1 | S | 3 | |
| Sandtown | DE | 2026-05-04 23:30 | DEOS | 61 | 49 | 65 | 29.81 | 0.00 | 2 | SSW | 5 | |
| Sandtown | DE | 2026-05-04 17:30 | DEOS | 75 | 39 | 27 | 29.79 | 0.00 | 4 | SSW | 10 | |
| Sandtown | DE | 2026-05-05 03:15 | DEOS | 64 | 51 | 64 | 29.81 | 0.00 | 3 | SSW | 9 | |
| Sandtown | DE | 2026-05-05 03:45 | DEOS | 64 | 51 | 62 | 29.81 | 0.00 | 4 | SW | 10 | |
| Sandtown | DE | 2026-05-05 03:40 | DEOS | 64 | 51 | 63 | 29.81 | 0.00 | 5 | SW | 12 | |
| Sandtown | DE | 2026-05-05 03:35 | DEOS | 64 | 51 | 62 | 29.81 | 0.00 | 5 | SSW | 10 | |
| Sandtown | DE | 2026-05-05 03:30 | DEOS | 64 | 51 | 63 | 29.81 | 0.00 | 6 | SSW | 13 | |
| Sandtown | DE | 2026-05-05 03:25 | DEOS | 64 | 51 | 63 | 29.81 | 0.00 | 5 | SSW | 12 | |
| Sandtown | DE | 2026-05-05 03:20 | DEOS | 64 | 51 | 64 | 29.81 | 0.00 | 4 | SSW | 9 | |
| Sandtown | DE | 2026-05-05 03:10 | DEOS | 64 | 51 | 64 | 29.81 | 0.00 | 4 | SSW | 10 | |
| Sandtown | DE | 2026-05-05 03:55 | DEOS | 64 | 51 | 63 | 29.81 | 0.00 | 4 | SSW | 9 | |
| Sandtown | DE | 2026-05-05 03:05 | DEOS | 64 | 51 | 64 | 29.81 | 0.00 | 4 | SSW | 8 | |
| Sandtown | DE | 2026-05-05 03:00 | DEOS | 64 | 52 | 65 | 29.81 | 0.00 | 4 | SW | 9 | |
| Sandtown | DE | 2026-05-05 02:55 | DEOS | 64 | 52 | 65 | 29.81 | 0.00 | 4 | SSW | 15 | |
| Sandtown | DE | 2026-05-05 02:50 | DEOS | 64 | 52 | 65 | 29.81 | 0.00 | 4 | SSW | 10 | |
| Sandtown | DE | 2026-05-05 02:45 | DEOS | 64 | 52 | 65 | 29.81 | 0.00 | 5 | S | 13 | |
| Sandtown | DE | 2026-05-05 02:40 | DEOS | 64 | 52 | 65 | 29.81 | 0.00 | 5 | SSW | 10 | |
| Sandtown | DE | 2026-05-05 03:50 | DEOS | 64 | 51 | 62 | 29.81 | 0.00 | 5 | SSW | 10 | |
| Sandtown | DE | 2026-05-05 04:00 | DEOS | 64 | 51 | 63 | 29.81 | 0.00 | 5 | SSW | 13 | |
| Sandtown | DE | 2026-05-05 02:30 | DEOS | 64 | 52 | 66 | 29.81 | 0.00 | 5 | SSW | 12 | |
| Sandtown | DE | 2026-05-05 04:45 | DEOS | 62 | 51 | 66 | 29.82 | 0.00 | 2 | SSW | 6 | |
| Sandtown | DE | 2026-05-05 05:15 | DEOS | 61 | 51 | 68 | 29.82 | 0.00 | 3 | SSW | 7 | |
| Sandtown | DE | 2026-05-05 05:10 | DEOS | 61 | 51 | 68 | 29.82 | 0.00 | 3 | SSW | 6 | |
| Sandtown | DE | 2026-05-05 05:05 | DEOS | 62 | 51 | 68 | 29.82 | 0.00 | 3 | SSW | 6 | |
| Sandtown | DE | 2026-05-05 05:00 | DEOS | 62 | 51 | 67 | 29.82 | 0.00 | 3 | SSW | 7 | |
| Sandtown | DE | 2026-05-05 04:55 | DEOS | 62 | 51 | 67 | 29.82 | 0.00 | 3 | SSW | 7 | |
| Sandtown | DE | 2026-05-05 04:50 | DEOS | 62 | 51 | 66 | 29.82 | 0.00 | 4 | SSW | 9 | |
| Sandtown | DE | 2026-05-05 04:40 | DEOS | 62 | 51 | 66 | 29.82 | 0.00 | 3 | SSW | 8 | |
| Sandtown | DE | 2026-05-05 04:05 | DEOS | 64 | 51 | 63 | 29.82 | 0.00 | 4 | SSW | 9 | |
| Sandtown | DE | 2026-05-05 04:35 | DEOS | 62 | 51 | 66 | 29.82 | 0.00 | 2 | SSW | 5 | |
| Sandtown | DE | 2026-05-05 04:30 | DEOS | 62 | 51 | 65 | 29.82 | 0.00 | 2 | SSW | 5 | |
| Sandtown | DE | 2026-05-05 04:25 | DEOS | 63 | 51 | 64 | 29.82 | 0.00 | 3 | SSW | 6 | |
| Sandtown | DE | 2026-05-05 04:20 | DEOS | 63 | 51 | 64 | 29.82 | 0.00 | 3 | SSW | 7 | |
| Sandtown | DE | 2026-05-05 04:15 | DEOS | 63 | 51 | 63 | 29.82 | 0.00 | 4 | SSW | 7 | |
| Sandtown | DE | 2026-05-05 04:10 | DEOS | 63 | 50 | 63 | 29.82 | 0.00 | 4 | SSW | 8 | |
| Sandtown | DE | 2026-05-05 02:35 | DEOS | 64 | 52 | 65 | 29.81 | 0.00 | 4 | SSW | 10 | |
| Sandtown | DE | 2026-05-05 02:25 | DEOS | 63 | 52 | 67 | 29.81 | 0.00 | 4 | SSW | 7 | |
| Sandtown | DE | 2026-05-04 23:35 | DEOS | 61 | 50 | 65 | 29.81 | 0.00 | 3 | SSW | 6 | |
| Sandtown | DE | 2026-05-05 00:15 | DEOS | 60 | 50 | 69 | 29.81 | 0.00 | 3 | S | 6 | |
| Sandtown | DE | 2026-05-05 00:45 | DEOS | 60 | 51 | 72 | 29.81 | 0.00 | 2 | SSW | 5 | |
| Sandtown | DE | 2026-05-05 00:40 | DEOS | 60 | 51 | 72 | 29.81 | 0.00 | 3 | SSW | 7 | |
| Sandtown | DE | 2026-05-05 00:35 | DEOS | 60 | 51 | 72 | 29.81 | 0.00 | 2 | SSW | 5 | |
| Sandtown | DE | 2026-05-05 00:30 | DEOS | 60 | 51 | 71 | 29.81 | 0.00 | 3 | SSW | 6 | |
| Sandtown | DE | 2026-05-05 00:25 | DEOS | 60 | 51 | 71 | 29.81 | 0.00 | 3 | SSW | 6 | |
| Sandtown | DE | 2026-05-05 00:20 | DEOS | 60 | 51 | 70 | 29.81 | 0.00 | 3 | S | 6 | |
| Sandtown | DE | 2026-05-05 00:10 | DEOS | 61 | 50 | 69 | 29.81 | 0.00 | 4 | S | 8 | |
| Sandtown | DE | 2026-05-05 00:55 | DEOS | 61 | 52 | 72 | 29.81 | 0.00 | 2 | SSW | 6 | |
| Sandtown | DE | 2026-05-05 00:05 | DEOS | 61 | 50 | 69 | 29.81 | 0.00 | 3 | SSW | 7 | |
| Sandtown | DE | 2026-05-05 00:00 | DEOS | 61 | 50 | 68 | 29.81 | 0.00 | 2 | S | 5 | |
| Sandtown | DE | 2026-05-04 23:55 | DEOS | 61 | 50 | 67 | 29.81 | 0.00 | 2 | S | 5 | |
| Sandtown | DE | 2026-05-04 23:50 | DEOS | 61 | 50 | 67 | 29.81 | 0.00 | 2 | S | 5 | |
| Sandtown | DE | 2026-05-04 23:45 | DEOS | 61 | 50 | 66 | 29.81 | 0.00 | 2 | S | 7 | |
| Sandtown | DE | 2026-05-04 23:40 | DEOS | 61 | 50 | 66 | 29.81 | 0.00 | 3 | SSW | 6 | |
| Sandtown | DE | 2026-05-05 00:50 | DEOS | 61 | 51 | 72 | 29.81 | 0.00 | 4 | SSW | 7 | |
| Sandtown | DE | 2026-05-05 01:00 | DEOS | 61 | 52 | 72 | 29.81 | 0.00 | 3 | SSW | 7 | |
| Sandtown | DE | 2026-05-05 02:20 | DEOS | 63 | 52 | 67 | 29.81 | 0.00 | 4 | SSW | 9 | |
| Sandtown | DE | 2026-05-05 01:45 | DEOS | 62 | 52 | 69 | 29.81 | 0.00 | 3 | SSW | 6 | |
| Sandtown | DE | 2026-05-05 02:15 | DEOS | 63 | 52 | 67 | 29.81 | 0.00 | 3 | SSW | 8 | |
| Sandtown | DE | 2026-05-05 02:10 | DEOS | 63 | 52 | 68 | 29.81 | 0.00 | 3 | SSW | 9 | |
| Sandtown | DE | 2026-05-05 02:05 | DEOS | 63 | 52 | 68 | 29.81 | 0.00 | 3 | SSW | 7 | |
| Sandtown | DE | 2026-05-05 02:00 | DEOS | 63 | 52 | 68 | 29.81 | 0.00 | 4 | SSW | 6 | |
| Sandtown | DE | 2026-05-05 01:55 | DEOS | 63 | 52 | 69 | 29.81 | 0.00 | 3 | SSW | 8 | |
| Sandtown | DE | 2026-05-05 01:50 | DEOS | 63 | 52 | 69 | 29.81 | 0.00 | 2 | SSW | 6 | |
| Sandtown | DE | 2026-05-05 01:40 | DEOS | 62 | 52 | 69 | 29.81 | 0.00 | 3 | SSW | 7 | |
| Sandtown | DE | 2026-05-05 01:05 | DEOS | 61 | 52 | 72 | 29.81 | 0.00 | 2 | S | 6 | |
| Sandtown | DE | 2026-05-05 01:35 | DEOS | 62 | 52 | 69 | 29.81 | 0.00 | 4 | SSW | 9 | |
| Sandtown | DE | 2026-05-05 01:30 | DEOS | 62 | 52 | 70 | 29.81 | 0.00 | 4 | SSW | 9 | |
| Sandtown | DE | 2026-05-05 01:25 | DEOS | 62 | 52 | 71 | 29.81 | 0.00 | 3 | SSW | 8 | |
| Sandtown | DE | 2026-05-05 01:20 | DEOS | 62 | 52 | 71 | 29.81 | 0.00 | 2 | SSW | 6 | |
| Sandtown | DE | 2026-05-05 01:15 | DEOS | 61 | 52 | 71 | 29.81 | 0.00 | 3 | S | 8 | |
| Sandtown | DE | 2026-05-05 01:10 | DEOS | 61 | 52 | 72 | 29.81 | 0.00 | 2 | SSW | 5 | |
| Sandtown | DE | 2026-05-04 17:35 | DEOS | 75 | 39 | 28 | 29.79 | 0.00 | 6 | SSW | 13 | |
| Sandtown | DE | 2026-05-04 17:25 | DEOS | 75 | 39 | 27 | 29.79 | 0.00 | 7 | WSW | 13 | |
| Sandtown | DE | 2026-05-04 05:30 | DEOS | 50 | 46 | 86 | 29.95 | 0.00 | 1 | SW | 4 | |
| Sandtown | DE | 2026-05-04 09:10 | DEOS | 60 | 43 | 54 | 29.93 | 0.00 | 6 | SW | 13 | |
| Sandtown | DE | 2026-05-04 09:40 | DEOS | 62 | 41 | 45 | 29.93 | 0.00 | 4 | SSW | 9 | |
| Sandtown | DE | 2026-05-04 09:35 | DEOS | 62 | 42 | 47 | 29.93 | 0.00 | 6 | WSW | 12 | |
| Sandtown | DE | 2026-05-04 09:30 | DEOS | 61 | 42 | 50 | 29.93 | 0.00 | 5 | SW | 9 | |
| Sandtown | DE | 2026-05-04 09:25 | DEOS | 61 | 43 | 51 | 29.93 | 0.00 | 6 | SW | 12 | |
| Sandtown | DE | 2026-05-04 09:20 | DEOS | 61 | 43 | 52 | 29.93 | 0.00 | 4 | SW | 8 | |
| Sandtown | DE | 2026-05-04 09:15 | DEOS | 60 | 43 | 53 | 29.93 | 0.00 | 5 | SSW | 11 | |
| Sandtown | DE | 2026-05-04 09:05 | DEOS | 60 | 44 | 56 | 29.93 | 0.00 | 6 | SSW | 14 | |
| Sandtown | DE | 2026-05-04 09:50 | DEOS | 63 | 41 | 45 | 29.93 | 0.00 | 5 | SW | 9 | |
| Sandtown | DE | 2026-05-04 09:00 | DEOS | 60 | 45 | 57 | 29.94 | 0.00 | 4 | SSW | 11 | |
| Sandtown | DE | 2026-05-04 08:55 | DEOS | 60 | 45 | 59 | 29.94 | 0.00 | 3 | SW | 7 | |
| Sandtown | DE | 2026-05-04 08:50 | DEOS | 59 | 45 | 60 | 29.94 | 0.00 | 4 | SSW | 11 | |
| Sandtown | DE | 2026-05-04 08:45 | DEOS | 59 | 46 | 62 | 29.94 | 0.00 | 4 | SSW | 9 | |
| Sandtown | DE | 2026-05-04 08:40 | DEOS | 58 | 46 | 65 | 29.94 | 0.00 | 5 | SW | 10 | |
| Sandtown | DE | 2026-05-04 08:35 | DEOS | 58 | 47 | 67 | 29.94 | 0.00 | 4 | S | 9 | |
| Sandtown | DE | 2026-05-04 09:45 | DEOS | 62 | 41 | 45 | 29.93 | 0.00 | 5 | SSW | 11 | |
| Sandtown | DE | 2026-05-04 09:55 | DEOS | 62 | 40 | 44 | 29.93 | 0.00 | 6 | SW | 12 | |
| Sandtown | DE | 2026-05-04 08:25 | DEOS | 57 | 47 | 70 | 29.94 | 0.00 | 3 | SW | 7 | |
| Sandtown | DE | 2026-05-04 10:40 | DEOS | 65 | 40 | 39 | 29.91 | 0.00 | 4 | WSW | 9 | |
| Sandtown | DE | 2026-05-04 11:10 | DEOS | 66 | 38 | 35 | 29.90 | 0.00 | 5 | S | 9 | |
| Sandtown | DE | 2026-05-04 11:05 | DEOS | 66 | 38 | 36 | 29.90 | 0.00 | 6 | SSW | 12 | |
| Sandtown | DE | 2026-05-04 11:00 | DEOS | 65 | 38 | 37 | 29.91 | 0.00 | 4 | SW | 9 | |
| Sandtown | DE | 2026-05-04 10:55 | DEOS | 66 | 38 | 36 | 29.91 | 0.00 | 6 | SW | 10 | |
| Sandtown | DE | 2026-05-04 10:50 | DEOS | 65 | 39 | 38 | 29.91 | 0.00 | 6 | WSW | 13 | |
| Sandtown | DE | 2026-05-04 10:45 | DEOS | 65 | 40 | 40 | 29.91 | 0.00 | 7 | SW | 13 | |
| Sandtown | DE | 2026-05-04 10:35 | DEOS | 65 | 40 | 39 | 29.91 | 0.00 | 5 | SSW | 9 | |
| Sandtown | DE | 2026-05-04 10:00 | DEOS | 63 | 40 | 43 | 29.93 | 0.00 | 6 | SW | 14 | |
| Sandtown | DE | 2026-05-04 10:30 | DEOS | 64 | 39 | 40 | 29.91 | 0.00 | 6 | SW | 10 | |
| Sandtown | DE | 2026-05-04 10:25 | DEOS | 64 | 38 | 39 | 29.91 | 0.00 | 6 | SSW | 11 | |
| Sandtown | DE | 2026-05-04 10:20 | DEOS | 64 | 40 | 41 | 29.91 | 0.00 | 7 | SW | 13 | |
| Sandtown | DE | 2026-05-04 10:15 | DEOS | 64 | 40 | 41 | 29.91 | 0.00 | 5 | SW | 9 | |
| Sandtown | DE | 2026-05-04 10:10 | DEOS | 63 | 39 | 41 | 29.91 | 0.00 | 5 | SW | 10 | |
| Sandtown | DE | 2026-05-04 10:05 | DEOS | 63 | 40 | 42 | 29.91 | 0.00 | 6 | SW | 13 | |
| Sandtown | DE | 2026-05-04 08:30 | DEOS | 58 | 47 | 69 | 29.94 | 0.00 | 5 | SSW | 9 | |
| Sandtown | DE | 2026-05-04 08:20 | DEOS | 56 | 48 | 73 | 29.94 | 0.00 | 4 | SW | 10 | |
| Sandtown | DE | 2026-05-04 11:20 | DEOS | 67 | 36 | 32 | 29.90 | 0.00 | 6 | SSW | 12 | |
| Sandtown | DE | 2026-05-04 06:10 | DEOS | 50 | 46 | 88 | 29.94 | 0.00 | 1 | SSW | 2 | |
| Sandtown | DE | 2026-05-04 06:40 | DEOS | 50 | 47 | 88 | 29.94 | 0.00 | 1 | SW | 3 | |
| Sandtown | DE | 2026-05-04 06:35 | DEOS | 50 | 46 | 88 | 29.94 | 0.00 | 0 | SSW | 1 | |
| Sandtown | DE | 2026-05-04 06:30 | DEOS | 50 | 46 | 88 | 29.94 | 0.00 | 0 | SSW | 2 | |
| Sandtown | DE | 2026-05-04 06:25 | DEOS | 50 | 46 | 88 | 29.94 | 0.00 | 0 | SW | 3 | |
| Sandtown | DE | 2026-05-04 06:20 | DEOS | 50 | 46 | 88 | 29.94 | 0.00 | 1 | SSW | 2 | |
| Sandtown | DE | 2026-05-04 06:15 | DEOS | 50 | 46 | 88 | 29.94 | 0.00 | 1 | SSW | 3 | |
| Sandtown | DE | 2026-05-04 06:05 | DEOS | 49 | 46 | 88 | 29.94 | 0.00 | 1 | S | 4 | |
| Sandtown | DE | 2026-05-04 06:50 | DEOS | 50 | 47 | 88 | 29.94 | 0.00 | 0 | SW | 1 | |
| Sandtown | DE | 2026-05-04 06:00 | DEOS | 50 | 46 | 88 | 29.95 | 0.00 | 1 | SSW | 2 | |
| Sandtown | DE | 2026-05-04 05:55 | DEOS | 50 | 46 | 87 | 29.95 | 0.00 | 1 | SSW | 2 | |
| Sandtown | DE | 2026-05-04 05:50 | DEOS | 50 | 46 | 86 | 29.95 | 0.00 | 1 | S | 3 | |
| Sandtown | DE | 2026-05-04 05:45 | DEOS | 50 | 46 | 86 | 29.95 | 0.00 | 1 | SW | 2 | |
| Sandtown | DE | 2026-05-04 05:40 | DEOS | 50 | 46 | 86 | 29.95 | 0.00 | 2 | SW | 3 | |
| Sandtown | DE | 2026-05-04 05:35 | DEOS | 50 | 46 | 86 | 29.95 | 0.00 | 0 | SW | 2 | |
| Sandtown | DE | 2026-05-04 06:45 | DEOS | 50 | 47 | 88 | 29.94 | 0.00 | 1 | SSW | 2 | |
| Sandtown | DE | 2026-05-04 06:55 | DEOS | 50 | 47 | 88 | 29.94 | 0.00 | 0 | SSE | 2 | |
| Sandtown | DE | 2026-05-04 08:15 | DEOS | 56 | 48 | 74 | 29.94 | 0.00 | 5 | SSW | 11 | |
| Sandtown | DE | 2026-05-04 07:40 | DEOS | 53 | 48 | 83 | 29.94 | 0.00 | 1 | SSW | 4 | |
| Sandtown | DE | 2026-05-04 08:10 | DEOS | 56 | 49 | 77 | 29.94 | 0.00 | 4 | SSW | 11 | |
| Sandtown | DE | 2026-05-04 08:05 | DEOS | 55 | 49 | 78 | 29.94 | 0.00 | 5 | SSW | 9 | |
| Sandtown | DE | 2026-05-04 08:00 | DEOS | 55 | 49 | 79 | 29.94 | 0.00 | 3 | SW | 7 | |
| Sandtown | DE | 2026-05-04 07:55 | DEOS | 54 | 49 | 81 | 29.94 | 0.00 | 3 | SSW | 6 | |
| Sandtown | DE | 2026-05-04 07:50 | DEOS | 54 | 49 | 83 | 29.94 | 0.00 | 3 | S | 7 | |
| Sandtown | DE | 2026-05-04 07:45 | DEOS | 53 | 48 | 83 | 29.94 | 0.00 | 2 | SSW | 5 | |
| Sandtown | DE | 2026-05-04 07:35 | DEOS | 53 | 48 | 83 | 29.94 | 0.00 | 2 | SSW | 5 | |
| Sandtown | DE | 2026-05-04 07:00 | DEOS | 50 | 47 | 87 | 29.94 | 0.00 | 1 | S | 2 | |
| Sandtown | DE | 2026-05-04 07:30 | DEOS | 52 | 47 | 84 | 29.94 | 0.00 | 2 | SSW | 5 | |
| Sandtown | DE | 2026-05-04 07:25 | DEOS | 51 | 47 | 85 | 29.94 | 0.00 | 2 | SSW | 5 | |
| Sandtown | DE | 2026-05-04 07:20 | DEOS | 51 | 47 | 87 | 29.94 | 0.00 | 1 | S | 5 | |
| Sandtown | DE | 2026-05-04 07:15 | DEOS | 51 | 47 | 87 | 29.94 | 0.00 | 2 | S | 4 | |
| Sandtown | DE | 2026-05-04 07:10 | DEOS | 51 | 47 | 88 | 29.94 | 0.00 | 1 | SSW | 4 | |
| Sandtown | DE | 2026-05-04 07:05 | DEOS | 51 | 47 | 88 | 29.94 | 0.00 | 1 | SSW | 3 | |
| Sandtown | DE | 2026-05-04 11:15 | DEOS | 67 | 37 | 33 | 29.90 | 0.00 | 4 | SW | 9 | |
| Sandtown | DE | 2026-05-04 11:25 | DEOS | 67 | 37 | 33 | 29.90 | 0.00 | 6 | WSW | 13 | |
| Sandtown | DE | 2026-05-04 17:20 | DEOS | 74 | 38 | 27 | 29.79 | 0.00 | 7 | SW | 16 | |
| Sandtown | DE | 2026-05-04 15:15 | DEOS | 73 | 37 | 26 | 29.83 | 0.00 | 7 | WSW | 16 | |
| Sandtown | DE | 2026-05-04 15:45 | DEOS | 73 | 37 | 27 | 29.83 | 0.00 | 7 | WSW | 14 | |
| Sandtown | DE | 2026-05-04 15:40 | DEOS | 73 | 37 | 27 | 29.83 | 0.00 | 6 | WSW | 13 | |
| Sandtown | DE | 2026-05-04 15:35 | DEOS | 74 | 37 | 26 | 29.83 | 0.00 | 8 | SW | 13 | |
| Sandtown | DE | 2026-05-04 15:30 | DEOS | 74 | 38 | 27 | 29.83 | 0.00 | 5 | SSW | 13 | |
| Sandtown | DE | 2026-05-04 15:25 | DEOS | 74 | 38 | 27 | 29.83 | 0.00 | 5 | WSW | 10 | |
| Sandtown | DE | 2026-05-04 15:20 | DEOS | 73 | 38 | 27 | 29.83 | 0.00 | 6 | WSW | 13 | |
| Sandtown | DE | 2026-05-04 15:10 | DEOS | 73 | 37 | 26 | 29.83 | 0.00 | 5 | WSW | 11 | |
| Sandtown | DE | 2026-05-04 15:55 | DEOS | 73 | 37 | 27 | 29.83 | 0.00 | 6 | WSW | 14 | |
| Sandtown | DE | 2026-05-04 15:05 | DEOS | 74 | 37 | 26 | 29.83 | 0.00 | 5 | WSW | 15 | |
| Sandtown | DE | 2026-05-04 15:00 | DEOS | 73 | 37 | 26 | 29.84 | 0.00 | 5 | SW | 11 | |
| Sandtown | DE | 2026-05-04 14:55 | DEOS | 73 | 35 | 26 | 29.84 | 0.00 | 6 | SW | 12 | |
| Sandtown | DE | 2026-05-04 14:50 | DEOS | 73 | 35 | 25 | 29.84 | 0.00 | 6 | SW | 15 | |
| Sandtown | DE | 2026-05-04 14:45 | DEOS | 73 | 35 | 25 | 29.84 | 0.00 | 5 | SSW | 15 | |
| Sandtown | DE | 2026-05-04 14:40 | DEOS | 73 | 36 | 26 | 29.84 | 0.00 | 6 | SW | 15 | |
| Sandtown | DE | 2026-05-04 15:50 | DEOS | 73 | 37 | 27 | 29.83 | 0.00 | 9 | WSW | 15 | |
| Sandtown | DE | 2026-05-04 16:00 | DEOS | 74 | 37 | 26 | 29.83 | 0.00 | 7 | SW | 16 | |
| Sandtown | DE | 2026-05-04 14:30 | DEOS | 73 | 35 | 25 | 29.84 | 0.00 | 5 | WSW | 10 | |
| Sandtown | DE | 2026-05-04 16:45 | DEOS | 74 | 38 | 27 | 29.81 | 0.00 | 7 | SSW | 13 | |
| Sandtown | DE | 2026-05-04 17:15 | DEOS | 74 | 38 | 26 | 29.79 | 0.00 | 7 | SW | 12 | |
| Sandtown | DE | 2026-05-04 17:10 | DEOS | 74 | 38 | 26 | 29.79 | 0.00 | 7 | SW | 13 | |
| Sandtown | DE | 2026-05-04 17:05 | DEOS | 75 | 38 | 27 | 29.79 | 0.00 | 7 | SW | 12 | |
| Sandtown | DE | 2026-05-04 17:00 | DEOS | 74 | 38 | 26 | 29.81 | 0.00 | 6 | SW | 13 | |
| Sandtown | DE | 2026-05-04 16:55 | DEOS | 74 | 38 | 27 | 29.81 | 0.00 | 7 | SW | 13 | |
| Sandtown | DE | 2026-05-04 16:50 | DEOS | 74 | 37 | 26 | 29.81 | 0.00 | 8 | SW | 13 | |
| Sandtown | DE | 2026-05-04 16:40 | DEOS | 75 | 38 | 26 | 29.81 | 0.00 | 8 | SSW | 16 | |
| Sandtown | DE | 2026-05-04 16:05 | DEOS | 73 | 37 | 27 | 29.81 | 0.00 | 5 | SW | 12 | |
| Sandtown | DE | 2026-05-04 16:35 | DEOS | 74 | 38 | 27 | 29.81 | 0.00 | 4 | SW | 8 | |
| Sandtown | DE | 2026-05-04 16:30 | DEOS | 75 | 38 | 26 | 29.81 | 0.00 | 6 | SW | 12 | |
| Sandtown | DE | 2026-05-04 16:25 | DEOS | 75 | 38 | 26 | 29.81 | 0.00 | 6 | SW | 11 | |
| Sandtown | DE | 2026-05-04 16:20 | DEOS | 74 | 38 | 27 | 29.81 | 0.00 | 6 | WSW | 10 | |
| Sandtown | DE | 2026-05-04 16:15 | DEOS | 74 | 38 | 27 | 29.81 | 0.00 | 6 | WSW | 13 | |
| Sandtown | DE | 2026-05-04 16:10 | DEOS | 74 | 37 | 27 | 29.81 | 0.00 | 7 | WSW | 13 | |
| Sandtown | DE | 2026-05-04 14:35 | DEOS | 73 | 36 | 26 | 29.84 | 0.00 | 4 | SW | 9 | |
| Sandtown | DE | 2026-05-04 14:25 | DEOS | 72 | 35 | 25 | 29.84 | 0.00 | 6 | SW | 13 | |
| Sandtown | DE | 2026-05-04 11:30 | DEOS | 68 | 37 | 32 | 29.90 | 0.00 | 3 | W | 6 | |
| Sandtown | DE | 2026-05-04 12:10 | DEOS | 69 | 34 | 28 | 29.88 | 0.00 | 7 | SW | 11 | |
| Sandtown | DE | 2026-05-04 12:40 | DEOS | 70 | 35 | 28 | 29.88 | 0.00 | 4 | SSW | 11 | |
| Sandtown | DE | 2026-05-04 12:35 | DEOS | 69 | 35 | 28 | 29.88 | 0.00 | 7 | WSW | 12 | |
| Sandtown | DE | 2026-05-04 12:30 | DEOS | 69 | 34 | 27 | 29.88 | 0.00 | 4 | SSW | 14 | |
| Sandtown | DE | 2026-05-04 12:25 | DEOS | 69 | 34 | 27 | 29.88 | 0.00 | 7 | SW | 15 | |
| Sandtown | DE | 2026-05-04 12:20 | DEOS | 69 | 33 | 27 | 29.88 | 0.00 | 6 | SW | 13 | |
| Sandtown | DE | 2026-05-04 12:15 | DEOS | 69 | 34 | 27 | 29.88 | 0.00 | 4 | W | 10 | |
| Sandtown | DE | 2026-05-04 12:05 | DEOS | 68 | 33 | 27 | 29.88 | 0.00 | 5 | W | 12 | |
| Sandtown | DE | 2026-05-04 12:50 | DEOS | 70 | 35 | 27 | 29.88 | 0.00 | 5 | W | 10 | |
| Sandtown | DE | 2026-05-04 12:00 | DEOS | 68 | 36 | 30 | 29.90 | 0.00 | 5 | W | 10 | |
| Sandtown | DE | 2026-05-04 11:55 | DEOS | 69 | 35 | 28 | 29.90 | 0.00 | 5 | W | 10 | |
| Sandtown | DE | 2026-05-04 11:50 | DEOS | 68 | 33 | 28 | 29.90 | 0.00 | 6 | WNW | 12 | |
| Sandtown | DE | 2026-05-04 11:45 | DEOS | 68 | 34 | 28 | 29.90 | 0.00 | 6 | WSW | 14 | |
| Sandtown | DE | 2026-05-04 11:40 | DEOS | 68 | 35 | 30 | 29.90 | 0.00 | 2 | W | 7 | |
| Sandtown | DE | 2026-05-04 11:35 | DEOS | 68 | 37 | 33 | 29.90 | 0.00 | 6 | WSW | 13 | |
| Sandtown | DE | 2026-05-04 12:45 | DEOS | 71 | 35 | 26 | 29.88 | 0.00 | 3 | W | 8 | |
| Sandtown | DE | 2026-05-04 12:55 | DEOS | 70 | 35 | 27 | 29.88 | 0.00 | 4 | SW | 8 | |
| Sandtown | DE | 2026-05-04 14:20 | DEOS | 72 | 36 | 27 | 29.84 | 0.00 | 8 | SW | 15 | |
| Sandtown | DE | 2026-05-04 13:45 | DEOS | 71 | 35 | 27 | 29.87 | 0.00 | 5 | WSW | 14 | |
| Sandtown | DE | 2026-05-04 14:15 | DEOS | 73 | 35 | 26 | 29.84 | 0.00 | 4 | SSW | 10 | |
| Sandtown | DE | 2026-05-04 14:10 | DEOS | 72 | 34 | 24 | 29.84 | 0.00 | 7 | SW | 14 | |
| Sandtown | DE | 2026-05-04 14:05 | DEOS | 72 | 36 | 27 | 29.84 | 0.00 | 7 | SW | 14 | |
| Sandtown | DE | 2026-05-04 14:00 | DEOS | 72 | 35 | 26 | 29.87 | 0.00 | 7 | SSW | 13 | |
| Sandtown | DE | 2026-05-04 13:55 | DEOS | 72 | 35 | 26 | 29.87 | 0.00 | 5 | SW | 11 | |
| Sandtown | DE | 2026-05-04 13:50 | DEOS | 71 | 34 | 26 | 29.87 | 0.00 | 4 | WSW | 11 | |
| Sandtown | DE | 2026-05-04 13:40 | DEOS | 71 | 35 | 26 | 29.87 | 0.00 | 4 | W | 10 | |
| Sandtown | DE | 2026-05-04 13:00 | DEOS | 71 | 33 | 25 | 29.88 | 0.00 | 6 | S | 13 | |
| Sandtown | DE | 2026-05-04 13:35 | DEOS | 71 | 35 | 26 | 29.87 | 0.00 | 4 | SW | 9 | |
| Sandtown | DE | 2026-05-04 13:30 | DEOS | 71 | 35 | 26 | 29.87 | 0.00 | 7 | SW | 15 | |
| Sandtown | DE | 2026-05-04 13:25 | DEOS | 71 | 35 | 26 | 29.87 | 0.00 | 5 | WSW | 10 | |
| Sandtown | DE | 2026-05-04 13:20 | DEOS | 71 | 34 | 26 | 29.87 | 0.00 | 6 | SSW | 11 | |
| Sandtown | DE | 2026-05-04 13:15 | DEOS | 70 | 33 | 26 | 29.87 | 0.00 | 5 | SW | 10 | |
| Sandtown | DE | 2026-05-04 13:10 | DEOS | 71 | 33 | 25 | 29.87 | 0.00 | 6 | WSW | 11 | |
| Sandtown | DE | 2026-05-04 13:05 | DEOS | 71 | 34 | 26 | 29.87 | 0.00 | 5 | SSW | 12 | |
| Sandtown | DE | 2026-05-05 05:20 | DEOS | 61 | 51 | 69 | 29.82 | 0.00 | 2 | S | 5 |
data collection created in 0.058641910552979 (queried in 0.011955) rendered in: 0.00087714195251465

